createdAt,value
2023-02-20T00:01:08.577Z,100.00
2023-02-20T00:03:53.869Z,100.00
2023-02-20T00:06:39.205Z,100.00
2023-02-20T00:09:24.396Z,100.00
2023-02-20T00:12:09.695Z,100.00
2023-02-20T00:14:55.137Z,100.00
2023-02-20T00:17:41.780Z,100.00
2023-02-20T00:20:27.439Z,100.00
2023-02-20T00:23:12.583Z,100.00
2023-02-20T00:25:57.741Z,100.00
2023-02-20T00:28:43.948Z,100.00
2023-02-20T00:31:29.242Z,100.00
2023-02-20T00:34:14.435Z,100.00
2023-02-20T00:36:59.660Z,100.00
2023-02-20T00:39:44.924Z,100.00
2023-02-20T00:42:29.995Z,100.00
2023-02-20T00:45:17.040Z,100.00
2023-02-20T00:48:01.885Z,100.00
2023-02-20T00:50:47.208Z,100.00
2023-02-20T00:53:38.079Z,100.00
2023-02-20T00:56:23.399Z,100.00
2023-02-20T00:59:08.572Z,100.00
2023-02-20T01:01:53.466Z,100.00
2023-02-20T01:04:38.906Z,100.00
2023-02-20T01:07:24.084Z,100.00
2023-02-20T01:10:10.718Z,100.00
2023-02-20T01:12:56.010Z,100.00
2023-02-20T01:15:41.560Z,100.00
2023-02-20T01:18:26.713Z,100.00
2023-02-20T01:21:11.608Z,100.00
2023-02-20T01:23:56.826Z,100.00
2023-02-20T01:26:43.732Z,100.00
2023-02-20T01:29:28.577Z,100.00
2023-02-20T01:32:13.967Z,100.00
2023-02-20T01:34:59.209Z,100.00
2023-02-20T01:37:44.534Z,100.00
2023-02-20T01:40:29.740Z,100.00
2023-02-20T01:43:16.047Z,100.00
2023-02-20T01:46:28.932Z,100.00
2023-02-20T01:49:18.557Z,100.00
2023-02-20T01:52:26.337Z,100.00
2023-02-20T01:55:17.087Z,100.00
2023-02-20T01:58:20.818Z,100.00
2023-02-20T02:01:06.659Z,100.00
2023-02-20T02:03:59.103Z,100.00
2023-02-20T02:06:47.895Z,100.00
2023-02-20T02:09:59.427Z,100.00
2023-02-20T02:12:51.291Z,100.00
2023-02-20T02:15:36.115Z,100.00
2023-02-20T02:18:25.843Z,100.00
2023-02-20T02:22:05.692Z,100.00
2023-02-20T02:25:08.887Z,100.00
2023-02-20T02:28:07.038Z,100.00
2023-02-20T02:31:22.558Z,100.00
2023-02-20T02:34:30.956Z,100.00
2023-02-20T02:37:35.574Z,100.00
2023-02-20T02:40:30.352Z,100.00
2023-02-20T02:43:33.759Z,100.00
2023-02-20T02:46:44.355Z,100.00
2023-02-20T02:49:57.598Z,100.00
2023-02-20T02:52:49.548Z,100.00
2023-02-20T02:55:34.792Z,100.00
2023-02-20T02:58:20.248Z,100.00
2023-02-20T03:01:07.868Z,100.00
2023-02-20T03:03:55.337Z,100.00
2023-02-20T03:06:46.920Z,100.00
2023-02-20T03:09:51.522Z,100.00
2023-02-20T03:12:42.382Z,100.00
2023-02-20T03:15:35.394Z,100.00
2023-02-20T03:18:31.888Z,100.00
2023-02-20T03:21:21.050Z,100.00
2023-02-20T03:24:08.000Z,100.00
2023-02-20T03:26:57.984Z,100.00
2023-02-20T03:29:43.441Z,100.00
2023-02-20T03:32:50.459Z,100.00
2023-02-20T03:35:57.233Z,100.00
2023-02-20T03:39:05.515Z,100.00
2023-02-20T03:42:10.874Z,100.00
2023-02-20T03:44:57.729Z,100.00
2023-02-20T03:47:46.697Z,100.00
2023-02-20T03:50:32.115Z,100.00
2023-02-20T03:53:17.506Z,100.00
2023-02-20T03:56:06.053Z,100.00
2023-02-20T03:58:58.241Z,100.00
2023-02-20T04:01:45.849Z,100.00
2023-02-20T04:04:42.821Z,100.00
2023-02-20T04:07:35.364Z,100.00
2023-02-20T04:10:25.426Z,100.00
2023-02-20T04:13:13.849Z,100.00
2023-02-20T04:16:01.289Z,100.00
2023-02-20T04:18:46.565Z,100.00
2023-02-20T04:21:40.932Z,100.00
2023-02-20T04:24:43.515Z,100.00
2023-02-20T04:27:28.982Z,100.00
2023-02-20T04:30:14.142Z,100.00
2023-02-20T04:32:59.827Z,100.00
2023-02-20T04:35:44.821Z,100.00
2023-02-20T04:38:30.167Z,100.00
2023-02-20T04:41:15.667Z,100.00
2023-02-20T04:44:19.695Z,100.00
2023-02-20T04:47:08.301Z,100.00
2023-02-20T04:49:53.402Z,100.00
2023-02-20T04:52:38.678Z,100.00
2023-02-20T04:55:24.177Z,100.00
2023-02-20T04:58:09.111Z,100.00
2023-02-20T05:00:54.054Z,100.00
2023-02-20T05:03:39.282Z,100.00
2023-02-20T05:06:24.483Z,100.00
2023-02-20T05:09:10.974Z,100.00
2023-02-20T05:11:56.046Z,100.00
2023-02-20T05:14:41.301Z,100.00
2023-02-20T05:17:26.472Z,100.00
2023-02-20T05:20:12.770Z,100.00
2023-02-20T05:22:58.075Z,100.00
2023-02-20T05:25:43.046Z,100.00
2023-02-20T05:28:28.834Z,100.00
2023-02-20T05:31:17.034Z,100.00
2023-02-20T05:34:02.838Z,100.00
2023-02-20T05:36:47.732Z,100.00
2023-02-20T05:39:32.763Z,100.00
2023-02-20T05:42:18.534Z,100.00
2023-02-20T05:45:04.472Z,100.00
2023-02-20T05:47:49.866Z,100.00
2023-02-20T05:50:35.294Z,100.00
2023-02-20T05:53:20.364Z,100.00
2023-02-20T05:56:05.779Z,100.00
2023-02-20T05:58:51.655Z,100.00
2023-02-20T06:01:36.821Z,100.00
2023-02-20T06:04:22.226Z,100.00
2023-02-20T06:07:10.277Z,100.00
2023-02-20T06:09:57.853Z,100.00
2023-02-20T06:12:43.332Z,100.00
2023-02-20T06:15:28.635Z,100.00
2023-02-20T06:18:13.824Z,100.00
2023-02-20T06:20:58.984Z,100.00
2023-02-20T06:23:47.637Z,100.00
2023-02-20T06:26:32.593Z,100.00
2023-02-20T06:29:18.756Z,100.00
2023-02-20T06:32:04.008Z,100.00
2023-02-20T06:34:49.228Z,100.00
2023-02-20T06:37:34.582Z,100.00
2023-02-20T06:40:19.926Z,100.00
2023-02-20T06:43:05.272Z,100.00
2023-02-20T06:45:50.574Z,100.00
2023-02-20T06:48:35.938Z,100.00
2023-02-20T06:51:24.545Z,100.00
2023-02-20T06:54:12.721Z,100.00
2023-02-20T06:56:57.635Z,100.00
2023-02-20T06:59:45.091Z,100.00
2023-02-20T07:02:30.409Z,100.00
2023-02-20T07:05:15.745Z,100.00
2023-02-20T07:08:01.002Z,100.00
2023-02-20T07:10:46.503Z,100.00
2023-02-20T07:13:31.612Z,100.00
2023-02-20T07:16:17.204Z,100.00
2023-02-20T07:19:02.291Z,100.00
2023-02-20T07:21:47.579Z,100.00
2023-02-20T07:24:32.902Z,100.00
2023-02-20T07:27:18.418Z,100.00
2023-02-20T07:30:03.747Z,100.00
2023-02-20T07:32:48.978Z,100.00
2023-02-20T07:35:34.280Z,100.00
2023-02-20T07:38:19.528Z,100.00
2023-02-20T07:41:05.364Z,100.00
2023-02-20T07:43:50.798Z,100.00
2023-02-20T07:46:36.082Z,100.00
2023-02-20T07:49:21.400Z,100.00
2023-02-20T07:52:06.569Z,100.00
2023-02-20T07:54:51.543Z,100.00
2023-02-20T07:57:37.330Z,100.00
2023-02-20T08:00:23.875Z,100.00
2023-02-20T08:03:08.779Z,100.00
2023-02-20T08:05:53.696Z,100.00
2023-02-20T08:08:38.971Z,100.00
2023-02-20T08:11:25.185Z,100.00
2023-02-20T08:14:10.554Z,100.00
2023-02-20T08:16:55.738Z,100.00
2023-02-20T08:19:40.622Z,100.00
2023-02-20T08:22:36.466Z,100.00
2023-02-20T08:25:26.373Z,100.00
2023-02-20T08:28:12.286Z,100.00
2023-02-20T08:30:57.685Z,100.00
2023-02-20T08:33:42.821Z,100.00
2023-02-20T08:36:28.146Z,100.00
2023-02-20T08:39:13.293Z,100.00
2023-02-20T08:41:58.676Z,100.00
2023-02-20T08:44:43.690Z,100.00
2023-02-20T08:47:28.990Z,100.00
2023-02-20T08:50:15.339Z,100.00
2023-02-20T08:53:00.737Z,100.00
2023-02-20T08:55:46.301Z,100.00
2023-02-20T08:58:31.620Z,100.00
2023-02-20T09:01:16.847Z,100.00
2023-02-20T09:04:02.271Z,100.00
2023-02-20T09:06:47.259Z,100.00
2023-02-20T09:09:32.274Z,100.00
2023-02-20T09:12:18.191Z,100.00
2023-02-20T09:15:03.682Z,100.00
2023-02-20T09:17:51.213Z,100.00
2023-02-20T09:20:37.553Z,100.00
2023-02-20T09:23:25.526Z,100.00
2023-02-20T09:26:10.993Z,100.00
2023-02-20T09:28:56.099Z,100.00
2023-02-20T09:31:41.461Z,100.00
2023-02-20T09:34:26.866Z,100.00
2023-02-20T09:37:12.374Z,100.00
2023-02-20T09:39:57.678Z,100.00
2023-02-20T09:42:44.219Z,100.00
2023-02-20T09:45:33.550Z,100.00
2023-02-20T09:48:46.678Z,100.00
2023-02-20T09:51:34.756Z,100.00
2023-02-20T09:54:27.701Z,100.00
2023-02-20T09:57:18.985Z,100.00
2023-02-20T10:00:17.375Z,100.00
2023-02-20T10:03:24.981Z,100.00
2023-02-20T10:06:16.894Z,100.00
2023-02-20T10:09:04.745Z,100.00
2023-02-20T10:11:56.033Z,100.00
2023-02-20T10:14:56.434Z,100.00
2023-02-20T10:17:57.234Z,100.00
2023-02-20T10:20:42.432Z,100.00
2023-02-20T10:23:39.757Z,100.00
2023-02-20T10:26:40.113Z,100.00
2023-02-20T10:29:29.231Z,100.00
2023-02-20T10:32:21.171Z,100.00
2023-02-20T10:35:20.564Z,100.00
2023-02-20T10:38:09.781Z,100.00
2023-02-20T10:41:08.059Z,100.00
2023-02-20T10:44:04.088Z,100.00
2023-02-20T10:47:17.137Z,100.00
2023-02-20T10:50:09.045Z,100.00
2023-02-20T10:53:26.811Z,100.00
2023-02-20T10:56:26.164Z,100.00
2023-02-20T10:59:18.156Z,100.00
2023-02-20T11:02:08.696Z,100.00
2023-02-20T11:05:19.331Z,100.00
2023-02-20T11:08:04.625Z,100.00
2023-02-20T11:10:55.864Z,100.00
2023-02-20T11:13:40.774Z,100.00
2023-02-20T11:16:35.946Z,100.00
2023-02-20T11:19:31.571Z,100.00
2023-02-20T11:22:18.579Z,100.00
2023-02-20T11:25:20.705Z,100.00
2023-02-20T11:28:18.757Z,100.00
2023-02-20T11:31:06.668Z,100.00
2023-02-20T11:33:54.943Z,100.00
2023-02-20T11:36:45.816Z,100.00
2023-02-20T11:39:32.937Z,100.00
2023-02-20T11:42:20.800Z,100.00
2023-02-20T11:45:15.616Z,100.00
2023-02-20T11:48:06.724Z,100.00
2023-02-20T11:50:53.411Z,100.00
2023-02-20T11:53:39.405Z,100.00
2023-02-20T11:56:24.619Z,100.00
2023-02-20T11:59:25.156Z,100.00
2023-02-20T12:02:30.554Z,100.00
2023-02-20T12:05:16.606Z,100.00
2023-02-20T12:08:02.108Z,100.00
2023-02-20T12:10:50.339Z,100.00
2023-02-20T12:13:39.778Z,100.00
2023-02-20T12:16:50.087Z,100.00
2023-02-20T12:20:10.966Z,100.00
2023-02-20T12:23:04.219Z,100.00
2023-02-20T12:26:22.244Z,100.00
2023-02-20T12:29:29.017Z,100.00
2023-02-20T12:32:44.675Z,100.00
2023-02-20T12:35:33.091Z,100.00
2023-02-20T12:38:27.001Z,100.00
2023-02-20T12:41:19.389Z,100.00
2023-02-20T12:44:48.552Z,100.00
2023-02-20T12:47:40.052Z,100.00
2023-02-20T12:50:44.182Z,100.00
2023-02-20T12:53:37.162Z,100.00
2023-02-20T12:56:51.496Z,100.00
2023-02-20T12:59:42.370Z,99.54
2023-02-20T13:02:42.789Z,98.72
2023-02-20T13:05:30.168Z,97.32
2023-02-20T13:08:23.693Z,96.73
2023-02-20T13:11:18.966Z,96.01
2023-02-20T13:14:13.309Z,97.21
2023-02-20T13:17:10.009Z,96.89
2023-02-20T13:19:58.099Z,96.55
2023-02-20T13:22:43.378Z,96.04
2023-02-20T13:25:31.724Z,97.04
2023-02-20T13:28:29.120Z,95.26
2023-02-20T13:31:19.236Z,93.88
2023-02-20T13:34:07.203Z,93.05
2023-02-20T13:36:52.263Z,91.46
2023-02-20T13:39:41.148Z,89.78
2023-02-20T13:42:31.612Z,90.73
2023-02-20T13:45:37.118Z,90.92
2023-02-20T13:48:28.915Z,92.21
2023-02-20T13:51:21.616Z,93.03
2023-02-20T13:54:18.591Z,92.82
2023-02-20T13:57:16.785Z,92.38
2023-02-20T14:00:04.443Z,90.63
2023-02-20T14:02:49.370Z,89.22
2023-02-20T14:05:34.454Z,90.08
2023-02-20T14:08:19.900Z,89.17
2023-02-20T14:11:10.178Z,89.20
2023-02-20T14:13:58.023Z,87.89
2023-02-20T14:16:46.156Z,87.98
2023-02-20T14:19:31.801Z,86.32
2023-02-20T14:22:42.652Z,85.39
2023-02-20T14:25:29.617Z,87.63
2023-02-20T14:28:15.581Z,88.07
2023-02-20T14:31:05.651Z,87.51
2023-02-20T14:33:56.067Z,86.31
2023-02-20T14:36:59.375Z,86.54
2023-02-20T14:40:26.505Z,85.58
2023-02-20T14:43:20.130Z,84.88
2023-02-20T14:46:07.915Z,83.33
2023-02-20T14:49:13.063Z,83.54
2023-02-20T14:52:08.139Z,83.19
2023-02-20T14:55:06.921Z,81.75
2023-02-20T14:57:52.094Z,81.19
2023-02-20T15:00:39.084Z,81.39
2023-02-20T15:03:31.629Z,82.03
2023-02-20T15:06:17.615Z,83.15
2023-02-20T15:09:19.956Z,83.59
2023-02-20T15:12:09.605Z,84.07
2023-02-20T15:15:06.655Z,85.71
2023-02-20T15:18:09.624Z,85.70
2023-02-20T15:20:54.617Z,85.93
2023-02-20T15:23:42.470Z,87.85
2023-02-20T15:26:29.599Z,88.61
2023-02-20T15:29:28.468Z,88.71
2023-02-20T15:32:24.079Z,89.79
2023-02-20T15:35:16.866Z,90.28
2023-02-20T15:38:07.641Z,90.58
2023-02-20T15:40:57.095Z,91.14
2023-02-20T15:43:48.069Z,91.06
2023-02-20T15:46:34.312Z,91.11
2023-02-20T15:49:21.044Z,91.54
2023-02-20T15:52:10.746Z,92.20
2023-02-20T15:54:56.474Z,92.98
2023-02-20T15:57:42.844Z,93.55
2023-02-20T16:00:32.728Z,93.92
2023-02-20T16:03:17.750Z,94.37
2023-02-20T16:06:02.874Z,95.38
2023-02-20T16:08:50.308Z,95.45
2023-02-20T16:11:40.098Z,95.49
2023-02-20T16:14:39.178Z,95.89
2023-02-20T16:17:26.922Z,96.22
2023-02-20T16:20:17.985Z,96.04
2023-02-20T16:23:04.742Z,97.29
2023-02-20T16:25:50.912Z,98.04
2023-02-20T16:28:36.160Z,97.95
2023-02-20T16:31:21.491Z,98.18
2023-02-20T16:34:21.190Z,98.69
2023-02-20T16:37:11.280Z,98.87
2023-02-20T16:39:56.712Z,99.09
2023-02-20T16:42:42.357Z,99.52
2023-02-20T16:45:27.919Z,99.90
2023-02-20T16:48:16.384Z,100.00
2023-02-20T16:51:01.663Z,100.00
2023-02-20T16:53:46.907Z,100.00
2023-02-20T16:56:32.040Z,100.00
2023-02-20T16:59:17.063Z,100.00
2023-02-20T17:02:02.063Z,100.00
2023-02-20T17:04:48.161Z,100.00
2023-02-20T17:07:34.624Z,100.00
2023-02-20T17:10:19.592Z,100.00
2023-02-20T17:13:04.760Z,100.00
2023-02-20T17:15:49.762Z,100.00
2023-02-20T17:18:34.943Z,100.00
2023-02-20T17:21:20.048Z,100.00
2023-02-20T17:24:05.435Z,100.00
2023-02-20T17:26:50.575Z,100.00
2023-02-20T17:29:35.794Z,100.00
2023-02-20T17:32:21.117Z,100.00
2023-02-20T17:35:06.714Z,100.00
2023-02-20T17:37:52.260Z,100.00
2023-02-20T17:40:37.951Z,100.00
2023-02-20T17:43:22.995Z,100.00
2023-02-20T17:46:08.164Z,100.00
2023-02-20T17:48:53.706Z,100.00
2023-02-20T17:51:38.608Z,100.00
2023-02-20T17:54:24.016Z,100.00
2023-02-20T17:57:09.610Z,100.00
2023-02-20T17:59:55.196Z,100.00
2023-02-20T18:02:40.416Z,100.00
2023-02-20T18:05:25.512Z,100.00
2023-02-20T18:08:10.296Z,100.00
2023-02-20T18:10:55.660Z,100.00
2023-02-20T18:13:40.775Z,100.00
2023-02-20T18:16:27.695Z,100.00
2023-02-20T18:19:14.921Z,100.00
2023-02-20T18:22:00.056Z,100.00
2023-02-20T18:24:45.222Z,100.00
2023-02-20T18:27:30.500Z,100.00
2023-02-20T18:30:15.924Z,100.00
2023-02-20T18:33:02.076Z,100.00
2023-02-20T18:35:55.466Z,100.00
2023-02-20T18:38:47.442Z,100.00
2023-02-20T18:41:32.698Z,100.00
2023-02-20T18:44:19.406Z,100.00
2023-02-20T18:47:04.694Z,100.00
2023-02-20T18:49:49.879Z,100.00
2023-02-20T18:52:34.939Z,100.00
2023-02-20T18:55:20.441Z,100.00
2023-02-20T18:58:05.862Z,100.00
2023-02-20T19:00:51.091Z,100.00
2023-02-20T19:03:36.414Z,100.00
2023-02-20T19:06:33.044Z,100.00
2023-02-20T19:09:23.982Z,100.00
2023-02-20T19:12:09.101Z,100.00
2023-02-20T19:14:54.393Z,100.00
2023-02-20T19:17:39.571Z,100.00
2023-02-20T19:20:29.127Z,100.00
2023-02-20T19:23:14.572Z,100.00
2023-02-20T19:25:59.776Z,100.00
2023-02-20T19:28:44.796Z,100.00
2023-02-20T19:31:29.999Z,100.00
2023-02-20T19:34:15.292Z,100.00
2023-02-20T19:37:03.217Z,100.00
2023-02-20T19:39:48.152Z,100.00
2023-02-20T19:42:34.749Z,100.00
2023-02-20T19:45:19.843Z,100.00
2023-02-20T19:48:05.470Z,100.00
2023-02-20T19:50:50.515Z,100.00
2023-02-20T19:53:36.008Z,100.00
2023-02-20T19:56:21.239Z,100.00
2023-02-20T19:59:06.078Z,100.00
2023-02-20T20:01:56.673Z,100.00
2023-02-20T20:04:43.805Z,100.00
2023-02-20T20:07:28.984Z,100.00
2023-02-20T20:10:14.177Z,100.00
2023-02-20T20:12:59.408Z,100.00
2023-02-20T20:15:44.662Z,100.00
2023-02-20T20:18:30.062Z,100.00
2023-02-20T20:21:15.158Z,100.00
2023-02-20T20:24:00.271Z,100.00
2023-02-20T20:26:45.516Z,100.00
2023-02-20T20:29:30.701Z,100.00
2023-02-20T20:32:17.997Z,100.00
2023-02-20T20:35:03.534Z,100.00
2023-02-20T20:37:49.110Z,100.00
2023-02-20T20:40:34.310Z,100.00
2023-02-20T20:43:19.617Z,100.00
2023-02-20T20:46:05.033Z,100.00
2023-02-20T20:48:50.161Z,100.00
2023-02-20T20:51:35.368Z,100.00
2023-02-20T20:54:20.614Z,100.00
2023-02-20T20:57:06.290Z,100.00
2023-02-20T20:59:51.740Z,100.00
2023-02-20T21:02:37.075Z,100.00
2023-02-20T21:05:25.500Z,100.00
2023-02-20T21:08:10.441Z,100.00
2023-02-20T21:10:55.481Z,100.00
2023-02-20T21:13:40.770Z,100.00
2023-02-20T21:16:26.106Z,100.00
2023-02-20T21:19:11.709Z,100.00
2023-02-20T21:21:56.926Z,100.00
2023-02-20T21:24:42.011Z,100.00
2023-02-20T21:27:27.249Z,100.00
2023-02-20T21:30:12.269Z,100.00
2023-02-20T21:32:57.568Z,100.00
2023-02-20T21:35:42.722Z,100.00
2023-02-20T21:38:28.048Z,100.00
2023-02-20T21:41:33.019Z,100.00
2023-02-20T21:44:28.962Z,100.00
2023-02-20T21:47:15.747Z,100.00
2023-02-20T21:50:00.653Z,100.00
2023-02-20T21:52:47.262Z,100.00
2023-02-20T21:55:32.390Z,100.00
2023-02-20T21:58:17.525Z,100.00
2023-02-20T22:01:02.485Z,100.00
2023-02-20T22:03:47.456Z,100.00
2023-02-20T22:06:32.486Z,100.00
2023-02-20T22:09:36.541Z,100.00
2023-02-20T22:12:40.583Z,100.00
2023-02-20T22:15:44.624Z,100.00
2023-02-20T22:18:48.443Z,100.00
2023-02-20T22:21:52.270Z,100.00
2023-02-20T22:24:56.248Z,100.00
2023-02-20T22:28:00.122Z,100.00
2023-02-20T22:31:04.660Z,100.00
2023-02-20T22:34:08.620Z,100.00
2023-02-20T22:37:12.467Z,100.00
2023-02-20T22:40:16.320Z,100.00
2023-02-20T22:43:20.188Z,100.00
2023-02-20T22:46:24.270Z,100.00
2023-02-20T22:49:28.138Z,100.00
2023-02-20T22:52:32.036Z,100.00
2023-02-20T22:55:35.744Z,100.00
2023-02-20T22:58:39.887Z,100.00
2023-02-20T23:01:43.744Z,100.00
2023-02-20T23:04:47.686Z,100.00
2023-02-20T23:07:51.693Z,100.00
2023-02-20T23:10:55.408Z,100.00
2023-02-20T23:13:59.157Z,100.00
2023-02-20T23:17:03.119Z,100.00
2023-02-20T23:20:06.931Z,100.00
2023-02-20T23:23:13.944Z,100.00
2023-02-20T23:26:18.406Z,100.00
2023-02-20T23:29:22.443Z,100.00
2023-02-20T23:32:26.992Z,100.00
2023-02-20T23:35:30.762Z,100.00
2023-02-20T23:38:34.736Z,100.00
2023-02-20T23:41:38.518Z,100.00
2023-02-20T23:44:42.435Z,100.00
2023-02-20T23:47:46.239Z,100.00
2023-02-20T23:50:50.087Z,100.00
2023-02-20T23:53:54.922Z,100.00
2023-02-20T23:56:58.784Z,100.00
